sensor_id;sensor_type;location;lat;lon;timestamp;temperature;humidity
65038;DHT22;51605;47.040;15.294;2023-03-03T00:02:24;20.10;55.30
65038;DHT22;51605;47.040;15.294;2023-03-03T00:04:50;20.10;55.20
65038;DHT22;51605;47.040;15.294;2023-03-03T00:07:15;20.10;55.30
65038;DHT22;51605;47.040;15.294;2023-03-03T00:09:47;20.10;55.40
65038;DHT22;51605;47.040;15.294;2023-03-03T00:14:48;20.10;55.30
65038;DHT22;51605;47.040;15.294;2023-03-03T00:17:26;20.10;55.20
65038;DHT22;51605;47.040;15.294;2023-03-03T00:19:52;20.10;55.20
65038;DHT22;51605;47.040;15.294;2023-03-03T00:22:35;20.10;55.20
65038;DHT22;51605;47.040;15.294;2023-03-03T00:25:23;20.10;55.10
65038;DHT22;51605;47.040;15.294;2023-03-03T00:27:50;20.10;55.20
65038;DHT22;51605;47.040;15.294;2023-03-03T00:30:26;20.10;55.20
65038;DHT22;51605;47.040;15.294;2023-03-03T00:32:53;20.10;55.20
65038;DHT22;51605;47.040;15.294;2023-03-03T00:35:28;20.10;55.20
65038;DHT22;51605;47.040;15.294;2023-03-03T00:37:57;20.10;55.30
65038;DHT22;51605;47.040;15.294;2023-03-03T00:40:57;20.10;55.30
65038;DHT22;51605;47.040;15.294;2023-03-03T00:43:22;20.10;55.30
65038;DHT22;51605;47.040;15.294;2023-03-03T00:45:53;20.10;55.30
65038;DHT22;51605;47.040;15.294;2023-03-03T00:53:48;20.10;55.30
65038;DHT22;51605;47.040;15.294;2023-03-03T00:56:14;20.10;55.20
65038;DHT22;51605;47.040;15.294;2023-03-03T00:58:40;20.10;56.20
65038;DHT22;51605;47.040;15.294;2023-03-03T01:01:06;20.10;55.20
65038;DHT22;51605;47.040;15.294;2023-03-03T01:03:31;20.10;55.20
65038;DHT22;51605;47.040;15.294;2023-03-03T01:05:57;20.10;55.30
65038;DHT22;51605;47.040;15.294;2023-03-03T01:08:23;20.10;55.20
65038;DHT22;51605;47.040;15.294;2023-03-03T01:10:54;20.10;55.20
65038;DHT22;51605;47.040;15.294;2023-03-03T01:13:23;20.10;55.20
65038;DHT22;51605;47.040;15.294;2023-03-03T01:15:50;20.10;55.20
65038;DHT22;51605;47.040;15.294;2023-03-03T01:18:16;20.10;55.20
65038;DHT22;51605;47.040;15.294;2023-03-03T01:20:41;20.10;55.20
65038;DHT22;51605;47.040;15.294;2023-03-03T01:23:07;20.10;55.20
65038;DHT22;51605;47.040;15.294;2023-03-03T01:25:33;20.10;55.20
65038;DHT22;51605;47.040;15.294;2023-03-03T01:27:59;20.10;55.20
65038;DHT22;51605;47.040;15.294;2023-03-03T01:30:25;20.10;55.20
65038;DHT22;51605;47.040;15.294;2023-03-03T01:32:51;20.10;55.20
65038;DHT22;51605;47.040;15.294;2023-03-03T01:35:17;20.10;55.30
65038;DHT22;51605;47.040;15.294;2023-03-03T01:37:43;20.10;55.10
65038;DHT22;51605;47.040;15.294;2023-03-03T01:40:19;20.10;55.10
65038;DHT22;51605;47.040;15.294;2023-03-03T01:42:45;20.10;55.10
65038;DHT22;51605;47.040;15.294;2023-03-03T01:45:21;20.10;55.10
65038;DHT22;51605;47.040;15.294;2023-03-03T01:48:00;20.10;55.10
65038;DHT22;51605;47.040;15.294;2023-03-03T01:53:02;20.10;55.20
65038;DHT22;51605;47.040;15.294;2023-03-03T01:55:33;20.10;55.10
65038;DHT22;51605;47.040;15.294;2023-03-03T01:58:21;20.10;55.20
65038;DHT22;51605;47.040;15.294;2023-03-03T02:00:50;20.10;55.20
65038;DHT22;51605;47.040;15.294;2023-03-03T02:03:19;20.10;55.50
65038;DHT22;51605;47.040;15.294;2023-03-03T02:05:45;20.10;55.20
65038;DHT22;51605;47.040;15.294;2023-03-03T02:08:15;20.10;56.10
65038;DHT22;51605;47.040;15.294;2023-03-03T02:10:45;20.10;55.20
65038;DHT22;51605;47.040;15.294;2023-03-03T02:13:11;20.10;55.20
65038;DHT22;51605;47.040;15.294;2023-03-03T02:15:38;20.10;55.30
65038;DHT22;51605;47.040;15.294;2023-03-03T02:18:08;20.10;55.30
65038;DHT22;51605;47.040;15.294;2023-03-03T02:23:16;20.10;55.20
65038;DHT22;51605;47.040;15.294;2023-03-03T02:26:06;20.10;55.20
65038;DHT22;51605;47.040;15.294;2023-03-03T02:28:34;20.10;55.10
65038;DHT22;51605;47.040;15.294;2023-03-03T02:31:00;20.10;55.20
65038;DHT22;51605;47.040;15.294;2023-03-03T02:33:27;20.10;55.20
65038;DHT22;51605;47.040;15.294;2023-03-03T02:35:53;20.10;55.10
65038;DHT22;51605;47.040;15.294;2023-03-03T02:44:04;20.10;55.10
65038;DHT22;51605;47.040;15.294;2023-03-03T02:46:39;20.10;55.10
65038;DHT22;51605;47.040;15.294;2023-03-03T02:49:06;20.10;55.20
65038;DHT22;51605;47.040;15.294;2023-03-03T02:51:33;20.10;55.10
65038;DHT22;51605;47.040;15.294;2023-03-03T02:53:59;20.10;55.10
65038;DHT22;51605;47.040;15.294;2023-03-03T02:56:25;20.10;55.20
65038;DHT22;51605;47.040;15.294;2023-03-03T02:58:51;20.10;55.20
65038;DHT22;51605;47.040;15.294;2023-03-03T03:01:17;20.10;55.10
65038;DHT22;51605;47.040;15.294;2023-03-03T03:03:43;20.10;55.10
65038;DHT22;51605;47.040;15.294;2023-03-03T03:06:09;20.10;55.10
65038;DHT22;51605;47.040;15.294;2023-03-03T03:08:35;20.10;55.10
65038;DHT22;51605;47.040;15.294;2023-03-03T03:11:00;20.10;55.10
65038;DHT22;51605;47.040;15.294;2023-03-03T03:13:27;20.10;55.20
65038;DHT22;51605;47.040;15.294;2023-03-03T03:15:52;20.10;55.10
65038;DHT22;51605;47.040;15.294;2023-03-03T03:18:18;20.10;55.10
65038;DHT22;51605;47.040;15.294;2023-03-03T03:20:44;20.10;55.10
65038;DHT22;51605;47.040;15.294;2023-03-03T03:23:11;20.10;55.10
65038;DHT22;51605;47.040;15.294;2023-03-03T03:25:37;20.10;55.10
65038;DHT22;51605;47.040;15.294;2023-03-03T03:28:10;20.10;55.10
65038;DHT22;51605;47.040;15.294;2023-03-03T03:30:36;20.10;55.10
65038;DHT22;51605;47.040;15.294;2023-03-03T03:33:02;20.10;55.20
65038;DHT22;51605;47.040;15.294;2023-03-03T03:35:27;20.10;55.10
65038;DHT22;51605;47.040;15.294;2023-03-03T03:37:53;20.10;55.20
65038;DHT22;51605;47.040;15.294;2023-03-03T03:40:19;20.10;55.10
65038;DHT22;51605;47.040;15.294;2023-03-03T03:42:44;20.10;55.20
65038;DHT22;51605;47.040;15.294;2023-03-03T03:45:10;20.10;55.20
65038;DHT22;51605;47.040;15.294;2023-03-03T03:47:40;20.10;55.10
65038;DHT22;51605;47.040;15.294;2023-03-03T03:50:07;20.10;55.10
65038;DHT22;51605;47.040;15.294;2023-03-03T03:52:33;20.10;55.10
65038;DHT22;51605;47.040;15.294;2023-03-03T03:54:59;20.10;55.10
65038;DHT22;51605;47.040;15.294;2023-03-03T03:57:24;20.10;55.20
65038;DHT22;51605;47.040;15.294;2023-03-03T03:59:50;20.10;55.20
65038;DHT22;51605;47.040;15.294;2023-03-03T04:02:16;20.10;55.10
65038;DHT22;51605;47.040;15.294;2023-03-03T04:04:42;20.10;55.10
65038;DHT22;51605;47.040;15.294;2023-03-03T04:07:07;20.10;55.10
65038;DHT22;51605;47.040;15.294;2023-03-03T04:09:33;20.10;55.10
65038;DHT22;51605;47.040;15.294;2023-03-03T04:11:59;20.10;55.10
65038;DHT22;51605;47.040;15.294;2023-03-03T04:14:25;20.10;55.10
65038;DHT22;51605;47.040;15.294;2023-03-03T04:16:50;20.10;55.00
65038;DHT22;51605;47.040;15.294;2023-03-03T04:19:16;20.10;55.10
65038;DHT22;51605;47.040;15.294;2023-03-03T04:21:42;20.10;55.20
65038;DHT22;51605;47.040;15.294;2023-03-03T04:24:08;20.10;55.10
65038;DHT22;51605;47.040;15.294;2023-03-03T04:26:33;20.10;55.10
65038;DHT22;51605;47.040;15.294;2023-03-03T04:28:59;20.10;55.10
65038;DHT22;51605;47.040;15.294;2023-03-03T04:31:26;20.10;55.10
65038;DHT22;51605;47.040;15.294;2023-03-03T04:33:52;20.10;55.10
65038;DHT22;51605;47.040;15.294;2023-03-03T04:36:18;20.10;55.10
65038;DHT22;51605;47.040;15.294;2023-03-03T04:38:44;20.10;55.10
65038;DHT22;51605;47.040;15.294;2023-03-03T04:41:10;20.10;55.10
65038;DHT22;51605;47.040;15.294;2023-03-03T04:43:35;20.10;55.20
65038;DHT22;51605;47.040;15.294;2023-03-03T04:46:01;20.10;55.10
65038;DHT22;51605;47.040;15.294;2023-03-03T04:48:27;20.10;55.10
65038;DHT22;51605;47.040;15.294;2023-03-03T04:50:53;20.10;55.10
65038;DHT22;51605;47.040;15.294;2023-03-03T04:53:19;20.10;55.10
65038;DHT22;51605;47.040;15.294;2023-03-03T04:55:45;20.10;55.10
65038;DHT22;51605;47.040;15.294;2023-03-03T04:58:11;20.10;55.10
65038;DHT22;51605;47.040;15.294;2023-03-03T05:00:37;20.10;55.20
65038;DHT22;51605;47.040;15.294;2023-03-03T05:03:04;20.10;55.20
65038;DHT22;51605;47.040;15.294;2023-03-03T05:05:29;20.10;55.10
65038;DHT22;51605;47.040;15.294;2023-03-03T05:07:55;20.10;55.10
65038;DHT22;51605;47.040;15.294;2023-03-03T05:10:20;20.10;55.10
65038;DHT22;51605;47.040;15.294;2023-03-03T05:12:46;20.10;55.10
65038;DHT22;51605;47.040;15.294;2023-03-03T05:15:12;20.10;55.10
65038;DHT22;51605;47.040;15.294;2023-03-03T05:17:37;20.10;55.10
65038;DHT22;51605;47.040;15.294;2023-03-03T05:20:04;20.10;55.00
65038;DHT22;51605;47.040;15.294;2023-03-03T05:22:33;20.10;55.00
65038;DHT22;51605;47.040;15.294;2023-03-03T05:24:58;20.10;55.10
65038;DHT22;51605;47.040;15.294;2023-03-03T05:27:24;20.10;55.00
65038;DHT22;51605;47.040;15.294;2023-03-03T05:29:50;20.10;55.10
65038;DHT22;51605;47.040;15.294;2023-03-03T05:32:15;20.10;55.10
65038;DHT22;51605;47.040;15.294;2023-03-03T05:34:42;20.10;55.10
65038;DHT22;51605;47.040;15.294;2023-03-03T05:37:07;20.10;55.00
65038;DHT22;51605;47.040;15.294;2023-03-03T05:39:34;20.10;55.00
65038;DHT22;51605;47.040;15.294;2023-03-03T05:42:00;20.10;55.00
65038;DHT22;51605;47.040;15.294;2023-03-03T05:44:26;20.10;55.00
65038;DHT22;51605;47.040;15.294;2023-03-03T05:46:52;20.10;55.00
65038;DHT22;51605;47.040;15.294;2023-03-03T05:49:17;20.10;55.00
65038;DHT22;51605;47.040;15.294;2023-03-03T05:51:43;20.10;55.00
65038;DHT22;51605;47.040;15.294;2023-03-03T05:54:09;20.10;55.10
65038;DHT22;51605;47.040;15.294;2023-03-03T05:56:34;20.10;55.00
65038;DHT22;51605;47.040;15.294;2023-03-03T05:59:00;20.10;55.10
65038;DHT22;51605;47.040;15.294;2023-03-03T06:01:26;20.10;55.00
65038;DHT22;51605;47.040;15.294;2023-03-03T06:03:53;20.10;55.10
65038;DHT22;51605;47.040;15.294;2023-03-03T06:06:19;20.10;55.10
65038;DHT22;51605;47.040;15.294;2023-03-03T06:08:45;20.10;55.10
65038;DHT22;51605;47.040;15.294;2023-03-03T06:11:10;20.10;55.10
65038;DHT22;51605;47.040;15.294;2023-03-03T06:13:37;20.10;55.10
65038;DHT22;51605;47.040;15.294;2023-03-03T06:16:03;20.10;55.20
65038;DHT22;51605;47.040;15.294;2023-03-03T06:18:28;20.10;55.10
65038;DHT22;51605;47.040;15.294;2023-03-03T06:20:54;20.10;55.50
65038;DHT22;51605;47.040;15.294;2023-03-03T06:23:20;20.10;55.10
65038;DHT22;51605;47.040;15.294;2023-03-03T06:25:46;20.10;55.10
65038;DHT22;51605;47.040;15.294;2023-03-03T06:28:12;20.10;55.00
65038;DHT22;51605;47.040;15.294;2023-03-03T06:30:39;20.10;55.00
65038;DHT22;51605;47.040;15.294;2023-03-03T06:33:04;20.10;55.00
65038;DHT22;51605;47.040;15.294;2023-03-03T06:35:30;20.10;54.80
65038;DHT22;51605;47.040;15.294;2023-03-03T06:37:55;20.10;54.80
65038;DHT22;51605;47.040;15.294;2023-03-03T06:40:21;20.10;55.80
65038;DHT22;51605;47.040;15.294;2023-03-03T06:42:47;20.10;54.80
65038;DHT22;51605;47.040;15.294;2023-03-03T06:45:13;20.10;54.80
65038;DHT22;51605;47.040;15.294;2023-03-03T06:47:39;20.10;55.80
65038;DHT22;51605;47.040;15.294;2023-03-03T06:50:05;20.10;54.80
65038;DHT22;51605;47.040;15.294;2023-03-03T06:52:31;20.10;54.70
65038;DHT22;51605;47.040;15.294;2023-03-03T06:54:59;20.10;54.70
65038;DHT22;51605;47.040;15.294;2023-03-03T06:57:29;20.10;54.70
65038;DHT22;51605;47.040;15.294;2023-03-03T07:02:46;20.10;54.80
65038;DHT22;51605;47.040;15.294;2023-03-03T07:05:16;20.10;54.80
65038;DHT22;51605;47.040;15.294;2023-03-03T07:07:42;20.10;54.80
65038;DHT22;51605;47.040;15.294;2023-03-03T07:10:28;20.10;54.70
65038;DHT22;51605;47.040;15.294;2023-03-03T07:12:59;20.10;55.00
65038;DHT22;51605;47.040;15.294;2023-03-03T07:15:33;20.10;54.70
65038;DHT22;51605;47.040;15.294;2023-03-03T07:17:59;20.10;54.80
65038;DHT22;51605;47.040;15.294;2023-03-03T07:20:32;20.10;54.90
65038;DHT22;51605;47.040;15.294;2023-03-03T07:22:59;20.10;55.20
65038;DHT22;51605;47.040;15.294;2023-03-03T07:25:33;20.10;55.00
65038;DHT22;51605;47.040;15.294;2023-03-03T07:28:27;20.10;54.70
65038;DHT22;51605;47.040;15.294;2023-03-03T07:30:54;20.10;54.70
65038;DHT22;51605;47.040;15.294;2023-03-03T07:33:27;20.10;54.50
65038;DHT22;51605;47.040;15.294;2023-03-03T07:35:58;20.10;54.50
65038;DHT22;51605;47.040;15.294;2023-03-03T07:38:41;20.10;54.40
65038;DHT22;51605;47.040;15.294;2023-03-03T07:41:17;20.10;54.30
65038;DHT22;51605;47.040;15.294;2023-03-03T07:43:50;20.10;54.20
65038;DHT22;51605;47.040;15.294;2023-03-03T07:46:39;20.10;54.70
65038;DHT22;51605;47.040;15.294;2023-03-03T07:49:34;20.10;54.30
65038;DHT22;51605;47.040;15.294;2023-03-03T07:52:01;20.10;54.20
65038;DHT22;51605;47.040;15.294;2023-03-03T07:54:42;20.10;54.20
65038;DHT22;51605;47.040;15.294;2023-03-03T07:59:49;20.10;54.00
65038;DHT22;51605;47.040;15.294;2023-03-03T08:05:30;20.10;54.00
65038;DHT22;51605;47.040;15.294;2023-03-03T08:08:18;20.10;53.90
65038;DHT22;51605;47.040;15.294;2023-03-03T08:10:47;20.10;54.00
65038;DHT22;51605;47.040;15.294;2023-03-03T08:13:21;20.10;53.90
65038;DHT22;51605;47.040;15.294;2023-03-03T08:16:02;20.00;53.90
65038;DHT22;51605;47.040;15.294;2023-03-03T08:23:39;20.10;55.00
65038;DHT22;51605;47.040;15.294;2023-03-03T08:26:05;20.10;54.10
65038;DHT22;51605;47.040;15.294;2023-03-03T08:28:31;20.10;54.10
65038;DHT22;51605;47.040;15.294;2023-03-03T08:30:57;20.10;54.10
65038;DHT22;51605;47.040;15.294;2023-03-03T08:33:23;20.10;54.10
65038;DHT22;51605;47.040;15.294;2023-03-03T08:35:48;20.10;54.10
65038;DHT22;51605;47.040;15.294;2023-03-03T08:38:17;20.10;54.10
65038;DHT22;51605;47.040;15.294;2023-03-03T08:40:43;20.10;54.10
65038;DHT22;51605;47.040;15.294;2023-03-03T08:43:10;20.10;54.20
65038;DHT22;51605;47.040;15.294;2023-03-03T08:45:37;20.10;54.20
65038;DHT22;51605;47.040;15.294;2023-03-03T08:48:03;20.10;55.10
65038;DHT22;51605;47.040;15.294;2023-03-03T08:50:30;20.10;54.20
65038;DHT22;51605;47.040;15.294;2023-03-03T08:52:56;20.10;54.20
65038;DHT22;51605;47.040;15.294;2023-03-03T08:55:21;20.10;54.40
65038;DHT22;51605;47.040;15.294;2023-03-03T08:57:47;20.10;54.20
65038;DHT22;51605;47.040;15.294;2023-03-03T09:00:15;20.10;54.30
65038;DHT22;51605;47.040;15.294;2023-03-03T09:02:41;20.10;55.40
65038;DHT22;51605;47.040;15.294;2023-03-03T09:05:08;20.10;54.30
65038;DHT22;51605;47.040;15.294;2023-03-03T09:07:34;20.10;54.30
65038;DHT22;51605;47.040;15.294;2023-03-03T09:09:59;20.10;54.20
65038;DHT22;51605;47.040;15.294;2023-03-03T09:12:30;20.10;54.30
65038;DHT22;51605;47.040;15.294;2023-03-03T09:14:59;20.10;54.30
65038;DHT22;51605;47.040;15.294;2023-03-03T09:17:29;20.10;54.20
65038;DHT22;51605;47.040;15.294;2023-03-03T09:19:59;20.10;54.30
65038;DHT22;51605;47.040;15.294;2023-03-03T09:22:27;20.10;54.30
65038;DHT22;51605;47.040;15.294;2023-03-03T09:24:56;20.10;54.30
65038;DHT22;51605;47.040;15.294;2023-03-03T09:27:32;20.10;54.30
65038;DHT22;51605;47.040;15.294;2023-03-03T09:32:41;20.10;54.30
65038;DHT22;51605;47.040;15.294;2023-03-03T09:35:36;20.10;54.20
65038;DHT22;51605;47.040;15.294;2023-03-03T09:38:25;20.10;54.20
65038;DHT22;51605;47.040;15.294;2023-03-03T09:49:33;20.10;54.30
65038;DHT22;51605;47.040;15.294;2023-03-03T09:54:47;20.10;55.20
65038;DHT22;51605;47.040;15.294;2023-03-03T10:05:55;20.10;55.50
65038;DHT22;51605;47.040;15.294;2023-03-03T10:11:24;20.10;54.40
65038;DHT22;51605;47.040;15.294;2023-03-03T10:16:52;20.10;54.50
65038;DHT22;51605;47.040;15.294;2023-03-03T10:19:40;20.10;54.50
65038;DHT22;51605;47.040;15.294;2023-03-03T10:25:14;20.10;54.60
65038;DHT22;51605;47.040;15.294;2023-03-03T10:36:28;20.10;54.40
65038;DHT22;51605;47.040;15.294;2023-03-03T10:39:25;20.10;54.50
65038;DHT22;51605;47.040;15.294;2023-03-03T10:47:45;20.10;54.60
65038;DHT22;51605;47.040;15.294;2023-03-03T10:50:25;20.10;54.50
65038;DHT22;51605;47.040;15.294;2023-03-03T10:53:10;20.10;54.40
65038;DHT22;51605;47.040;15.294;2023-03-03T10:58:26;20.10;55.40
65038;DHT22;51605;47.040;15.294;2023-03-03T11:17:14;20.10;54.70
65038;DHT22;51605;47.040;15.294;2023-03-03T11:20:03;20.10;54.70
65038;DHT22;51605;47.040;15.294;2023-03-03T11:22:49;20.10;54.60
65038;DHT22;51605;47.040;15.294;2023-03-03T11:39:02;20.10;54.70
65038;DHT22;51605;47.040;15.294;2023-03-03T11:41:35;20.10;54.70
65038;DHT22;51605;47.040;15.294;2023-03-03T11:44:29;20.10;54.60
65038;DHT22;51605;47.040;15.294;2023-03-03T11:49:42;20.10;54.60
65038;DHT22;51605;47.040;15.294;2023-03-03T12:13:53;20.10;54.40
65038;DHT22;51605;47.040;15.294;2023-03-03T12:27:10;20.10;54.60
65038;DHT22;51605;47.040;15.294;2023-03-03T12:32:45;20.20;54.60
65038;DHT22;51605;47.040;15.294;2023-03-03T12:40:40;20.10;55.40
65038;DHT22;51605;47.040;15.294;2023-03-03T12:43:39;20.10;56.00
65038;DHT22;51605;47.040;15.294;2023-03-03T12:46:14;20.10;55.70
65038;DHT22;51605;47.040;15.294;2023-03-03T12:48:45;20.20;55.70
65038;DHT22;51605;47.040;15.294;2023-03-03T12:57:11;20.20;55.90
65038;DHT22;51605;47.040;15.294;2023-03-03T13:00:15;20.20;55.90
65038;DHT22;51605;47.040;15.294;2023-03-03T13:03:10;20.20;56.40
65038;DHT22;51605;47.040;15.294;2023-03-03T13:05:52;20.10;56.00
65038;DHT22;51605;47.040;15.294;2023-03-03T13:14:09;20.10;56.00
65038;DHT22;51605;47.040;15.294;2023-03-03T13:19:21;20.20;56.20
65038;DHT22;51605;47.040;15.294;2023-03-03T13:22:01;20.20;56.10
65038;DHT22;51605;47.040;15.294;2023-03-03T13:24:44;20.20;56.40
65038;DHT22;51605;47.040;15.294;2023-03-03T13:27:16;20.20;56.20
65038;DHT22;51605;47.040;15.294;2023-03-03T13:29:58;20.20;56.80
65038;DHT22;51605;47.040;15.294;2023-03-03T13:35:08;20.20;56.20
65038;DHT22;51605;47.040;15.294;2023-03-03T13:37:46;20.20;56.20
65038;DHT22;51605;47.040;15.294;2023-03-03T13:42:42;20.20;56.10
65038;DHT22;51605;47.040;15.294;2023-03-03T13:48:27;20.20;56.50
65038;DHT22;51605;47.040;15.294;2023-03-03T13:51:21;20.20;55.80
65038;DHT22;51605;47.040;15.294;2023-03-03T14:08:02;20.20;55.30
65038;DHT22;51605;47.040;15.294;2023-03-03T14:10:39;20.20;55.30
65038;DHT22;51605;47.040;15.294;2023-03-03T14:13:41;20.20;55.30
65038;DHT22;51605;47.040;15.294;2023-03-03T14:18:56;20.20;55.30
65038;DHT22;51605;47.040;15.294;2023-03-03T14:21:41;20.20;55.30
65038;DHT22;51605;47.040;15.294;2023-03-03T14:24:16;20.20;55.30
65038;DHT22;51605;47.040;15.294;2023-03-03T14:26:53;20.20;55.30
65038;DHT22;51605;47.040;15.294;2023-03-03T14:32:40;20.20;55.20
65038;DHT22;51605;47.040;15.294;2023-03-03T14:34:40;20.20;55.20
65038;DHT22;51605;47.040;15.294;2023-03-03T14:37:27;20.20;55.20
65038;DHT22;51605;47.040;15.294;2023-03-03T14:47:45;20.10;55.10
65038;DHT22;51605;47.040;15.294;2023-03-03T14:50:39;20.10;55.20
65038;DHT22;51605;47.040;15.294;2023-03-03T14:55:51;20.10;55.20
65038;DHT22;51605;47.040;15.294;2023-03-03T15:00:50;20.10;55.20
65038;DHT22;51605;47.040;15.294;2023-03-03T15:05:51;20.10;55.20
65038;DHT22;51605;47.040;15.294;2023-03-03T15:08:32;20.10;55.20
65038;DHT22;51605;47.040;15.294;2023-03-03T15:13:42;20.10;55.20
65038;DHT22;51605;47.040;15.294;2023-03-03T15:16:18;20.10;55.20
65038;DHT22;51605;47.040;15.294;2023-03-03T15:21:32;20.10;55.10
65038;DHT22;51605;47.040;15.294;2023-03-03T15:26:54;20.10;55.10
65038;DHT22;51605;47.040;15.294;2023-03-03T15:29:28;20.10;55.20
65038;DHT22;51605;47.040;15.294;2023-03-03T15:32:29;20.10;55.10
65038;DHT22;51605;47.040;15.294;2023-03-03T15:34:59;20.10;55.10
65038;DHT22;51605;47.040;15.294;2023-03-03T15:43:12;20.10;55.10
65038;DHT22;51605;47.040;15.294;2023-03-03T15:48:55;20.10;55.10
65038;DHT22;51605;47.040;15.294;2023-03-03T15:59:19;20.10;55.10
65038;DHT22;51605;47.040;15.294;2023-03-03T16:01:58;20.10;55.20
65038;DHT22;51605;47.040;15.294;2023-03-03T16:04:28;20.10;55.30
65038;DHT22;51605;47.040;15.294;2023-03-03T16:12:30;20.10;55.20
65038;DHT22;51605;47.040;15.294;2023-03-03T16:21:15;20.10;55.00
65038;DHT22;51605;47.040;15.294;2023-03-03T16:31:36;20.10;55.20
65038;DHT22;51605;47.040;15.294;2023-03-03T16:34:19;20.10;55.20
65038;DHT22;51605;47.040;15.294;2023-03-03T16:42:30;20.10;55.10
65038;DHT22;51605;47.040;15.294;2023-03-03T16:47:48;20.10;55.10
65038;DHT22;51605;47.040;15.294;2023-03-03T16:53:03;20.10;55.10
65038;DHT22;51605;47.040;15.294;2023-03-03T16:55:41;20.10;55.10
65038;DHT22;51605;47.040;15.294;2023-03-03T16:59:09;20.10;55.10
65038;DHT22;51605;47.040;15.294;2023-03-03T17:01:46;20.10;55.10
65038;DHT22;51605;47.040;15.294;2023-03-03T17:04:19;20.10;55.10
65038;DHT22;51605;47.040;15.294;2023-03-03T17:06:54;20.10;55.10
65038;DHT22;51605;47.040;15.294;2023-03-03T17:21:19;20.10;55.10
65038;DHT22;51605;47.040;15.294;2023-03-03T17:27:24;20.10;55.10
65038;DHT22;51605;47.040;15.294;2023-03-03T17:35:07;20.10;55.00
65038;DHT22;51605;47.040;15.294;2023-03-03T17:38:05;20.10;55.10
65038;DHT22;51605;47.040;15.294;2023-03-03T17:40:58;20.10;55.10
65038;DHT22;51605;47.040;15.294;2023-03-03T17:46:09;20.10;55.00
65038;DHT22;51605;47.040;15.294;2023-03-03T17:49:01;20.10;55.10
65038;DHT22;51605;47.040;15.294;2023-03-03T18:19:27;20.10;55.20
65038;DHT22;51605;47.040;15.294;2023-03-03T18:22:06;20.10;55.20
65038;DHT22;51605;47.040;15.294;2023-03-03T18:27:29;20.10;55.20
65038;DHT22;51605;47.040;15.294;2023-03-03T18:35:34;20.10;55.10
65038;DHT22;51605;47.040;15.294;2023-03-03T18:38:21;20.10;55.00
65038;DHT22;51605;47.040;15.294;2023-03-03T18:49:10;20.10;55.00
65038;DHT22;51605;47.040;15.294;2023-03-03T19:04:39;20.10;55.00
65038;DHT22;51605;47.040;15.294;2023-03-03T19:08:03;20.10;55.00
65038;DHT22;51605;47.040;15.294;2023-03-03T19:12:52;20.10;55.00
65038;DHT22;51605;47.040;15.294;2023-03-03T19:18:04;20.10;54.90
65038;DHT22;51605;47.040;15.294;2023-03-03T19:20:43;20.10;54.90
65038;DHT22;51605;47.040;15.294;2023-03-03T19:23:17;20.10;54.90
65038;DHT22;51605;47.040;15.294;2023-03-03T19:25:43;20.10;55.00
65038;DHT22;51605;47.040;15.294;2023-03-03T19:31:01;20.10;55.00
65038;DHT22;51605;47.040;15.294;2023-03-03T19:33:56;20.10;55.00
65038;DHT22;51605;47.040;15.294;2023-03-03T19:36:41;20.10;54.90
65038;DHT22;51605;47.040;15.294;2023-03-03T19:44:53;20.10;54.90
65038;DHT22;51605;47.040;15.294;2023-03-03T19:47:45;20.10;54.80
65038;DHT22;51605;47.040;15.294;2023-03-03T19:50:47;20.10;54.90
65038;DHT22;51605;47.040;15.294;2023-03-03T19:56:08;20.10;54.90
65038;DHT22;51605;47.040;15.294;2023-03-03T20:04:39;20.10;55.00
65038;DHT22;51605;47.040;15.294;2023-03-03T20:15:13;20.10;55.00
65038;DHT22;51605;47.040;15.294;2023-03-03T20:26:57;20.10;55.00
65038;DHT22;51605;47.040;15.294;2023-03-03T20:35:00;20.10;55.00
65038;DHT22;51605;47.040;15.294;2023-03-03T20:40:24;20.10;55.00
65038;DHT22;51605;47.040;15.294;2023-03-03T20:45:45;20.10;55.00
65038;DHT22;51605;47.040;15.294;2023-03-03T20:51:09;20.10;55.00
65038;DHT22;51605;47.040;15.294;2023-03-03T21:01:31;20.10;55.00
65038;DHT22;51605;47.040;15.294;2023-03-03T21:06:48;20.10;55.00
65038;DHT22;51605;47.040;15.294;2023-03-03T21:09:37;20.10;54.90
65038;DHT22;51605;47.040;15.294;2023-03-03T21:12:26;20.10;54.80
65038;DHT22;51605;47.040;15.294;2023-03-03T21:15:22;20.10;54.80
65038;DHT22;51605;47.040;15.294;2023-03-03T21:17:49;20.10;54.80
65038;DHT22;51605;47.040;15.294;2023-03-03T21:20:33;20.10;54.80
65038;DHT22;51605;47.040;15.294;2023-03-03T21:23:01;20.10;54.80
65038;DHT22;51605;47.040;15.294;2023-03-03T21:36:12;20.10;54.80
65038;DHT22;51605;47.040;15.294;2023-03-03T21:38:38;20.10;54.80
65038;DHT22;51605;47.040;15.294;2023-03-03T21:41:06;20.10;54.80
65038;DHT22;51605;47.040;15.294;2023-03-03T21:43:37;20.10;54.90
65038;DHT22;51605;47.040;15.294;2023-03-03T21:46:03;20.10;54.90
65038;DHT22;51605;47.040;15.294;2023-03-03T21:48:29;20.10;54.90
65038;DHT22;51605;47.040;15.294;2023-03-03T21:50:54;20.10;55.00
65038;DHT22;51605;47.040;15.294;2023-03-03T21:53:20;20.10;54.90
65038;DHT22;51605;47.040;15.294;2023-03-03T21:55:55;20.10;54.90
65038;DHT22;51605;47.040;15.294;2023-03-03T21:58:20;20.10;54.90
65038;DHT22;51605;47.040;15.294;2023-03-03T22:00:46;20.10;54.90
65038;DHT22;51605;47.040;15.294;2023-03-03T22:03:12;20.10;54.90
65038;DHT22;51605;47.040;15.294;2023-03-03T22:05:44;20.10;54.90
65038;DHT22;51605;47.040;15.294;2023-03-03T22:08:09;20.10;55.00
65038;DHT22;51605;47.040;15.294;2023-03-03T22:10:35;20.10;54.90
65038;DHT22;51605;47.040;15.294;2023-03-03T22:13:01;20.10;55.00
65038;DHT22;51605;47.040;15.294;2023-03-03T22:15:26;20.10;54.80
65038;DHT22;51605;47.040;15.294;2023-03-03T22:17:54;20.10;54.80
65038;DHT22;51605;47.040;15.294;2023-03-03T22:20:21;20.10;54.80
65038;DHT22;51605;47.040;15.294;2023-03-03T22:22:47;20.10;54.80
65038;DHT22;51605;47.040;15.294;2023-03-03T22:25:13;20.10;54.80
65038;DHT22;51605;47.040;15.294;2023-03-03T22:27:38;20.10;54.80
65038;DHT22;51605;47.040;15.294;2023-03-03T22:30:04;20.10;54.80
65038;DHT22;51605;47.040;15.294;2023-03-03T22:32:30;20.10;54.90
65038;DHT22;51605;47.040;15.294;2023-03-03T22:34:56;20.10;54.90
65038;DHT22;51605;47.040;15.294;2023-03-03T22:37:21;20.10;54.80
65038;DHT22;51605;47.040;15.294;2023-03-03T22:39:47;20.10;54.90
65038;DHT22;51605;47.040;15.294;2023-03-03T22:42:12;20.10;54.80
65038;DHT22;51605;47.040;15.294;2023-03-03T22:44:38;20.10;54.80
65038;DHT22;51605;47.040;15.294;2023-03-03T22:47:04;20.10;54.90